Vernon, Idaho
Current Conditions -  °F | °C
As of 4:56 PM on Friday 19 Dec 2014 (Local Time) from KDIJ Reporting Station
Overcast Overcast  
Wind Chill: 31°   Ceiling: 4000
Heat Index: 31°   Visibility: 10mi
Dew Point: 26°   Wind: 0mph
Humidity: 82%   Direction: NA
Pressure: 30.06"   Gusts: NA
Location:  43.6065°N, 111.138°W
Report Text: KDIJ 192356Z AUTO 00000KT 10SM FEW030 OVC040 M01/M03 A3006 RMK AO2 55003 60000 T10051033 10005 21011 SNE16 P0000 SLP178
Loading
Personal Weather Stations






























Interactive Weather Map New forecast layout! Learn more

10-Day Weather Forecast

Advertisements
Track Severe Weather on mobile